sensor_id;sensor_type;location;lat;lon;timestamp;P1;durP1;ratioP1;P2;durP2;ratioP2
17727;SDS011;8984;49.268;12.302;2023-01-28T00:00:57;9.07;;;7.60;;
17727;SDS011;8984;49.268;12.302;2023-01-28T00:03:23;10.47;;;7.90;;
17727;SDS011;8984;49.268;12.302;2023-01-28T00:05:50;9.23;;;7.87;;
17727;SDS011;8984;49.268;12.302;2023-01-28T00:08:18;9.40;;;7.03;;
17727;SDS011;8984;49.268;12.302;2023-01-28T00:10:45;10.87;;;8.17;;
17727;SDS011;8984;49.268;12.302;2023-01-28T00:13:11;10.43;;;7.43;;
17727;SDS011;8984;49.268;12.302;2023-01-28T00:15:41;12.23;;;7.83;;
17727;SDS011;8984;49.268;12.302;2023-01-28T00:18:08;11.67;;;8.13;;
17727;SDS011;8984;49.268;12.302;2023-01-28T00:20:35;9.57;;;8.17;;
17727;SDS011;8984;49.268;12.302;2023-01-28T00:23:02;10.93;;;8.40;;
17727;SDS011;8984;49.268;12.302;2023-01-28T00:25:29;9.80;;;7.80;;
17727;SDS011;8984;49.268;12.302;2023-01-28T00:27:56;13.07;;;9.10;;
17727;SDS011;8984;49.268;12.302;2023-01-28T00:30:22;10.67;;;8.70;;
17727;SDS011;8984;49.268;12.302;2023-01-28T00:32:50;11.57;;;8.57;;
17727;SDS011;8984;49.268;12.302;2023-01-28T00:35:19;12.73;;;8.93;;
17727;SDS011;8984;49.268;12.302;2023-01-28T00:37:46;12.87;;;8.87;;
17727;SDS011;8984;49.268;12.302;2023-01-28T00:40:13;11.73;;;8.27;;
17727;SDS011;8984;49.268;12.302;2023-01-28T00:42:40;12.43;;;9.27;;
17727;SDS011;8984;49.268;12.302;2023-01-28T00:45:07;12.47;;;8.60;;
17727;SDS011;8984;49.268;12.302;2023-01-28T00:47:34;12.27;;;9.60;;
17727;SDS011;8984;49.268;12.302;2023-01-28T00:50:02;13.73;;;9.97;;
17727;SDS011;8984;49.268;12.302;2023-01-28T00:52:30;12.37;;;9.53;;
17727;SDS011;8984;49.268;12.302;2023-01-28T00:54:56;12.57;;;9.77;;
17727;SDS011;8984;49.268;12.302;2023-01-28T00:57:23;10.90;;;8.97;;
17727;SDS011;8984;49.268;12.302;2023-01-28T00:59:50;13.07;;;9.73;;
17727;SDS011;8984;49.268;12.302;2023-01-28T01:02:18;12.97;;;10.10;;
17727;SDS011;8984;49.268;12.302;2023-01-28T01:04:45;10.97;;;8.30;;
17727;SDS011;8984;49.268;12.302;2023-01-28T01:07:21;13.70;;;10.07;;
17727;SDS011;8984;49.268;12.302;2023-01-28T01:09:58;14.57;;;9.97;;
17727;SDS011;8984;49.268;12.302;2023-01-28T01:12:26;13.90;;;10.37;;
17727;SDS011;8984;49.268;12.302;2023-01-28T01:14:53;11.37;;;8.53;;
17727;SDS011;8984;49.268;12.302;2023-01-28T01:17:19;11.33;;;9.03;;
17727;SDS011;8984;49.268;12.302;2023-01-28T01:19:46;12.57;;;9.37;;
17727;SDS011;8984;49.268;12.302;2023-01-28T01:22:13;14.43;;;10.63;;
17727;SDS011;8984;49.268;12.302;2023-01-28T01:24:41;13.53;;;10.20;;
17727;SDS011;8984;49.268;12.302;2023-01-28T01:27:08;12.90;;;9.23;;
17727;SDS011;8984;49.268;12.302;2023-01-28T01:29:34;13.67;;;10.20;;
17727;SDS011;8984;49.268;12.302;2023-01-28T01:32:01;13.70;;;10.07;;
17727;SDS011;8984;49.268;12.302;2023-01-28T01:34:28;11.60;;;8.90;;
17727;SDS011;8984;49.268;12.302;2023-01-28T01:36:55;12.13;;;9.17;;
17727;SDS011;8984;49.268;12.302;2023-01-28T01:39:23;13.77;;;9.87;;
17727;SDS011;8984;49.268;12.302;2023-01-28T01:41:51;13.77;;;9.10;;
17727;SDS011;8984;49.268;12.302;2023-01-28T01:47:19;12.40;;;9.17;;
17727;SDS011;8984;49.268;12.302;2023-01-28T01:49:49;13.87;;;10.37;;
17727;SDS011;8984;49.268;12.302;2023-01-28T01:52:16;11.97;;;9.43;;
17727;SDS011;8984;49.268;12.302;2023-01-28T01:54:47;13.17;;;10.13;;
17727;SDS011;8984;49.268;12.302;2023-01-28T01:57:20;12.43;;;9.60;;
17727;SDS011;8984;49.268;12.302;2023-01-28T01:59:50;14.07;;;10.57;;
17727;SDS011;8984;49.268;12.302;2023-01-28T02:02:17;14.73;;;10.07;;
17727;SDS011;8984;49.268;12.302;2023-01-28T02:04:44;13.10;;;10.30;;
17727;SDS011;8984;49.268;12.302;2023-01-28T02:07:12;12.93;;;9.70;;
17727;SDS011;8984;49.268;12.302;2023-01-28T02:09:41;12.93;;;9.13;;
17727;SDS011;8984;49.268;12.302;2023-01-28T02:12:08;12.57;;;9.10;;
17727;SDS011;8984;49.268;12.302;2023-01-28T02:14:41;14.67;;;9.97;;
17727;SDS011;8984;49.268;12.302;2023-01-28T02:17:12;12.27;;;9.53;;
17727;SDS011;8984;49.268;12.302;2023-01-28T02:19:39;13.70;;;10.17;;
17727;SDS011;8984;49.268;12.302;2023-01-28T02:22:19;13.10;;;9.80;;
17727;SDS011;8984;49.268;12.302;2023-01-28T02:25:04;14.37;;;9.83;;
17727;SDS011;8984;49.268;12.302;2023-01-28T02:27:58;14.50;;;10.10;;
17727;SDS011;8984;49.268;12.302;2023-01-28T02:30:47;13.27;;;9.77;;
17727;SDS011;8984;49.268;12.302;2023-01-28T02:33:23;15.67;;;10.43;;
17727;SDS011;8984;49.268;12.302;2023-01-28T02:35:55;14.03;;;9.50;;
17727;SDS011;8984;49.268;12.302;2023-01-28T02:38:25;14.13;;;9.83;;
17727;SDS011;8984;49.268;12.302;2023-01-28T02:40:57;14.60;;;10.47;;
17727;SDS011;8984;49.268;12.302;2023-01-28T02:43:35;13.53;;;9.73;;
17727;SDS011;8984;49.268;12.302;2023-01-28T02:46:09;16.63;;;11.10;;
17727;SDS011;8984;49.268;12.302;2023-01-28T02:48:58;15.40;;;11.43;;
17727;SDS011;8984;49.268;12.302;2023-01-28T02:51:28;17.07;;;11.50;;
17727;SDS011;8984;49.268;12.302;2023-01-28T02:54:06;16.07;;;11.40;;
17727;SDS011;8984;49.268;12.302;2023-01-28T02:56:39;14.90;;;11.07;;
17727;SDS011;8984;49.268;12.302;2023-01-28T02:59:12;17.50;;;11.20;;
17727;SDS011;8984;49.268;12.302;2023-01-28T03:01:58;16.57;;;10.93;;
17727;SDS011;8984;49.268;12.302;2023-01-28T03:04:30;15.73;;;11.17;;
17727;SDS011;8984;49.268;12.302;2023-01-28T03:07:01;14.10;;;10.60;;
17727;SDS011;8984;49.268;12.302;2023-01-28T03:09:30;16.27;;;11.67;;
17727;SDS011;8984;49.268;12.302;2023-01-28T03:11:57;15.63;;;11.27;;
17727;SDS011;8984;49.268;12.302;2023-01-28T03:14:47;14.53;;;11.17;;
17727;SDS011;8984;49.268;12.302;2023-01-28T03:17:35;17.83;;;11.40;;
17727;SDS011;8984;49.268;12.302;2023-01-28T03:20:25;17.43;;;12.40;;
17727;SDS011;8984;49.268;12.302;2023-01-28T03:23:13;16.60;;;10.93;;
17727;SDS011;8984;49.268;12.302;2023-01-28T03:26:03;15.73;;;11.87;;
17727;SDS011;8984;49.268;12.302;2023-01-28T03:28:51;16.87;;;12.57;;
17727;SDS011;8984;49.268;12.302;2023-01-28T03:31:38;15.33;;;11.53;;
17727;SDS011;8984;49.268;12.302;2023-01-28T03:34:23;17.97;;;11.97;;
17727;SDS011;8984;49.268;12.302;2023-01-28T03:37:08;16.27;;;11.00;;
17727;SDS011;8984;49.268;12.302;2023-01-28T03:39:38;17.40;;;12.53;;
17727;SDS011;8984;49.268;12.302;2023-01-28T03:42:06;17.00;;;11.90;;
17727;SDS011;8984;49.268;12.302;2023-01-28T03:44:34;15.57;;;11.27;;
17727;SDS011;8984;49.268;12.302;2023-01-28T03:47:18;16.23;;;11.13;;
17727;SDS011;8984;49.268;12.302;2023-01-28T03:49:47;16.33;;;11.27;;
17727;SDS011;8984;49.268;12.302;2023-01-28T03:52:15;15.53;;;10.43;;
17727;SDS011;8984;49.268;12.302;2023-01-28T03:54:43;17.63;;;11.50;;
17727;SDS011;8984;49.268;12.302;2023-01-28T03:57:12;15.57;;;11.67;;
17727;SDS011;8984;49.268;12.302;2023-01-28T03:59:39;14.87;;;10.63;;
17727;SDS011;8984;49.268;12.302;2023-01-28T04:02:06;15.70;;;11.30;;
17727;SDS011;8984;49.268;12.302;2023-01-28T04:04:36;15.87;;;11.00;;
17727;SDS011;8984;49.268;12.302;2023-01-28T04:07:03;17.00;;;12.20;;
17727;SDS011;8984;49.268;12.302;2023-01-28T04:09:32;16.13;;;10.97;;
17727;SDS011;8984;49.268;12.302;2023-01-28T04:11:59;16.97;;;11.77;;
17727;SDS011;8984;49.268;12.302;2023-01-28T04:14:26;18.27;;;11.60;;
17727;SDS011;8984;49.268;12.302;2023-01-28T04:16:53;15.67;;;11.77;;
17727;SDS011;8984;49.268;12.302;2023-01-28T04:19:21;14.17;;;11.07;;
17727;SDS011;8984;49.268;12.302;2023-01-28T04:21:49;16.40;;;11.90;;
17727;SDS011;8984;49.268;12.302;2023-01-28T04:24:18;20.90;;;13.83;;
17727;SDS011;8984;49.268;12.302;2023-01-28T04:26:45;15.93;;;11.13;;
17727;SDS011;8984;49.268;12.302;2023-01-28T04:29:11;16.80;;;11.50;;
17727;SDS011;8984;49.268;12.302;2023-01-28T04:31:38;16.87;;;11.13;;
17727;SDS011;8984;49.268;12.302;2023-01-28T04:34:05;15.43;;;10.60;;
17727;SDS011;8984;49.268;12.302;2023-01-28T04:36:33;16.00;;;10.50;;
17727;SDS011;8984;49.268;12.302;2023-01-28T04:39:01;16.07;;;11.57;;
17727;SDS011;8984;49.268;12.302;2023-01-28T04:41:28;16.83;;;11.93;;
17727;SDS011;8984;49.268;12.302;2023-01-28T04:43:55;14.70;;;10.63;;
17727;SDS011;8984;49.268;12.302;2023-01-28T04:46:21;14.50;;;10.97;;
17727;SDS011;8984;49.268;12.302;2023-01-28T04:48:48;14.53;;;10.50;;
17727;SDS011;8984;49.268;12.302;2023-01-28T04:51:15;13.23;;;9.63;;
17727;SDS011;8984;49.268;12.302;2023-01-28T04:53:42;15.03;;;9.93;;
17727;SDS011;8984;49.268;12.302;2023-01-28T04:56:10;13.17;;;9.63;;
17727;SDS011;8984;49.268;12.302;2023-01-28T04:58:37;13.13;;;10.00;;
17727;SDS011;8984;49.268;12.302;2023-01-28T05:01:03;12.70;;;9.83;;
17727;SDS011;8984;49.268;12.302;2023-01-28T05:03:30;11.93;;;9.13;;
17727;SDS011;8984;49.268;12.302;2023-01-28T05:05:57;13.53;;;10.10;;
17727;SDS011;8984;49.268;12.302;2023-01-28T05:08:23;15.57;;;10.50;;
17727;SDS011;8984;49.268;12.302;2023-01-28T05:10:50;14.87;;;10.80;;
17727;SDS011;8984;49.268;12.302;2023-01-28T05:13:18;11.53;;;9.10;;
17727;SDS011;8984;49.268;12.302;2023-01-28T05:15:49;13.17;;;8.93;;
17727;SDS011;8984;49.268;12.302;2023-01-28T05:18:16;12.23;;;9.73;;
17727;SDS011;8984;49.268;12.302;2023-01-28T05:20:43;12.17;;;9.57;;
17727;SDS011;8984;49.268;12.302;2023-01-28T05:23:09;13.97;;;9.87;;
17727;SDS011;8984;49.268;12.302;2023-01-28T05:25:36;12.53;;;9.57;;
17727;SDS011;8984;49.268;12.302;2023-01-28T05:28:03;12.97;;;9.90;;
17727;SDS011;8984;49.268;12.302;2023-01-28T05:30:31;12.03;;;9.00;;
17727;SDS011;8984;49.268;12.302;2023-01-28T05:32:58;12.27;;;9.17;;
17727;SDS011;8984;49.268;12.302;2023-01-28T05:35:25;12.63;;;9.23;;
17727;SDS011;8984;49.268;12.302;2023-01-28T05:37:52;15.30;;;10.10;;
17727;SDS011;8984;49.268;12.302;2023-01-28T05:40:18;12.87;;;9.37;;
17727;SDS011;8984;49.268;12.302;2023-01-28T05:42:45;14.27;;;9.67;;
17727;SDS011;8984;49.268;12.302;2023-01-28T05:45:12;13.33;;;9.27;;
17727;SDS011;8984;49.268;12.302;2023-01-28T05:47:40;14.87;;;9.80;;
17727;SDS011;8984;49.268;12.302;2023-01-28T05:50:08;12.63;;;8.80;;
17727;SDS011;8984;49.268;12.302;2023-01-28T05:52:37;13.57;;;9.40;;
17727;SDS011;8984;49.268;12.302;2023-01-28T05:55:04;11.60;;;8.73;;
17727;SDS011;8984;49.268;12.302;2023-01-28T05:57:32;12.80;;;9.77;;
17727;SDS011;8984;49.268;12.302;2023-01-28T05:59:58;14.23;;;10.30;;
17727;SDS011;8984;49.268;12.302;2023-01-28T06:02:25;14.77;;;10.57;;
17727;SDS011;8984;49.268;12.302;2023-01-28T06:04:53;14.30;;;9.50;;
17727;SDS011;8984;49.268;12.302;2023-01-28T06:07:20;12.00;;;8.90;;
17727;SDS011;8984;49.268;12.302;2023-01-28T06:09:49;13.80;;;10.10;;
17727;SDS011;8984;49.268;12.302;2023-01-28T06:12:16;13.93;;;10.10;;
17727;SDS011;8984;49.268;12.302;2023-01-28T06:14:42;16.77;;;11.60;;
17727;SDS011;8984;49.268;12.302;2023-01-28T06:17:09;16.70;;;10.93;;
17727;SDS011;8984;49.268;12.302;2023-01-28T06:19:36;16.23;;;11.07;;
17727;SDS011;8984;49.268;12.302;2023-01-28T06:22:04;12.50;;;9.80;;
17727;SDS011;8984;49.268;12.302;2023-01-28T06:24:31;14.33;;;10.30;;
17727;SDS011;8984;49.268;12.302;2023-01-28T06:26:57;14.53;;;10.80;;
17727;SDS011;8984;49.268;12.302;2023-01-28T06:29:25;17.50;;;11.90;;
17727;SDS011;8984;49.268;12.302;2023-01-28T06:31:52;15.57;;;10.23;;
17727;SDS011;8984;49.268;12.302;2023-01-28T06:34:19;12.13;;;9.57;;
17727;SDS011;8984;49.268;12.302;2023-01-28T06:36:46;13.13;;;9.07;;
17727;SDS011;8984;49.268;12.302;2023-01-28T06:39:16;14.87;;;9.63;;
17727;SDS011;8984;49.268;12.302;2023-01-28T06:41:43;14.27;;;9.93;;
17727;SDS011;8984;49.268;12.302;2023-01-28T06:44:09;16.53;;;10.67;;
17727;SDS011;8984;49.268;12.302;2023-01-28T06:46:36;13.17;;;9.87;;
17727;SDS011;8984;49.268;12.302;2023-01-28T06:49:03;13.67;;;9.97;;
17727;SDS011;8984;49.268;12.302;2023-01-28T06:51:30;14.67;;;10.67;;
17727;SDS011;8984;49.268;12.302;2023-01-28T06:53:57;14.00;;;9.40;;
17727;SDS011;8984;49.268;12.302;2023-01-28T06:56:25;16.00;;;10.90;;
17727;SDS011;8984;49.268;12.302;2023-01-28T06:58:52;14.23;;;10.13;;
17727;SDS011;8984;49.268;12.302;2023-01-28T07:01:18;15.70;;;10.40;;
17727;SDS011;8984;49.268;12.302;2023-01-28T07:03:45;15.60;;;10.23;;
17727;SDS011;8984;49.268;12.302;2023-01-28T07:06:12;14.97;;;10.87;;
17727;SDS011;8984;49.268;12.302;2023-01-28T07:08:39;16.77;;;11.17;;
17727;SDS011;8984;49.268;12.302;2023-01-28T07:11:06;18.87;;;12.33;;
17727;SDS011;8984;49.268;12.302;2023-01-28T07:13:34;15.07;;;10.70;;
17727;SDS011;8984;49.268;12.302;2023-01-28T07:16:01;16.43;;;11.13;;
17727;SDS011;8984;49.268;12.302;2023-01-28T07:18:28;16.50;;;11.97;;
17727;SDS011;8984;49.268;12.302;2023-01-28T07:20:55;16.90;;;10.83;;
17727;SDS011;8984;49.268;12.302;2023-01-28T07:23:21;16.40;;;11.20;;
17727;SDS011;8984;49.268;12.302;2023-01-28T07:25:48;15.87;;;11.50;;
17727;SDS011;8984;49.268;12.302;2023-01-28T07:28:15;15.90;;;11.40;;
17727;SDS011;8984;49.268;12.302;2023-01-28T07:30:47;16.90;;;12.10;;
17727;SDS011;8984;49.268;12.302;2023-01-28T07:33:14;18.50;;;12.20;;
17727;SDS011;8984;49.268;12.302;2023-01-28T07:35:41;21.80;;;13.27;;
17727;SDS011;8984;49.268;12.302;2023-01-28T07:38:08;19.23;;;12.37;;
17727;SDS011;8984;49.268;12.302;2023-01-28T07:40:35;19.30;;;12.93;;
17727;SDS011;8984;49.268;12.302;2023-01-28T07:43:02;18.80;;;12.57;;
17727;SDS011;8984;49.268;12.302;2023-01-28T07:45:31;18.57;;;13.57;;
17727;SDS011;8984;49.268;12.302;2023-01-28T07:48:00;18.27;;;12.57;;
17727;SDS011;8984;49.268;12.302;2023-01-28T07:50:29;17.10;;;12.20;;
17727;SDS011;8984;49.268;12.302;2023-01-28T07:52:58;18.57;;;12.77;;
17727;SDS011;8984;49.268;12.302;2023-01-28T07:55:27;21.43;;;13.43;;
17727;SDS011;8984;49.268;12.302;2023-01-28T07:57:55;22.53;;;14.13;;
17727;SDS011;8984;49.268;12.302;2023-01-28T08:00:23;23.67;;;14.13;;
17727;SDS011;8984;49.268;12.302;2023-01-28T08:02:54;20.60;;;14.20;;
17727;SDS011;8984;49.268;12.302;2023-01-28T08:05:23;20.83;;;14.07;;
17727;SDS011;8984;49.268;12.302;2023-01-28T08:07:51;22.50;;;14.63;;
17727;SDS011;8984;49.268;12.302;2023-01-28T08:10:18;21.07;;;13.80;;
17727;SDS011;8984;49.268;12.302;2023-01-28T08:12:54;22.07;;;14.87;;
17727;SDS011;8984;49.268;12.302;2023-01-28T08:15:23;21.03;;;14.37;;
17727;SDS011;8984;49.268;12.302;2023-01-28T08:17:50;23.40;;;13.87;;
17727;SDS011;8984;49.268;12.302;2023-01-28T08:20:19;22.83;;;14.87;;
17727;SDS011;8984;49.268;12.302;2023-01-28T08:22:47;25.63;;;15.40;;
17727;SDS011;8984;49.268;12.302;2023-01-28T08:25:14;25.13;;;14.40;;
17727;SDS011;8984;49.268;12.302;2023-01-28T08:27:41;23.87;;;14.40;;
17727;SDS011;8984;49.268;12.302;2023-01-28T08:30:08;21.17;;;14.60;;
17727;SDS011;8984;49.268;12.302;2023-01-28T08:32:35;22.73;;;15.07;;
17727;SDS011;8984;49.268;12.302;2023-01-28T08:35:03;20.67;;;13.67;;
17727;SDS011;8984;49.268;12.302;2023-01-28T08:37:31;21.93;;;14.60;;
17727;SDS011;8984;49.268;12.302;2023-01-28T08:39:59;21.13;;;14.13;;
17727;SDS011;8984;49.268;12.302;2023-01-28T08:42:26;20.33;;;13.23;;
17727;SDS011;8984;49.268;12.302;2023-01-28T08:44:53;19.50;;;13.90;;
17727;SDS011;8984;49.268;12.302;2023-01-28T08:47:19;21.53;;;13.90;;
17727;SDS011;8984;49.268;12.302;2023-01-28T08:49:46;20.20;;;13.67;;
17727;SDS011;8984;49.268;12.302;2023-01-28T08:52:13;22.77;;;14.73;;
17727;SDS011;8984;49.268;12.302;2023-01-28T08:54:40;23.77;;;16.03;;
17727;SDS011;8984;49.268;12.302;2023-01-28T08:57:08;21.23;;;14.67;;
17727;SDS011;8984;49.268;12.302;2023-01-28T08:59:34;21.63;;;15.57;;
17727;SDS011;8984;49.268;12.302;2023-01-28T09:02:05;22.70;;;15.97;;
17727;SDS011;8984;49.268;12.302;2023-01-28T09:04:31;23.67;;;15.40;;
17727;SDS011;8984;49.268;12.302;2023-01-28T09:06:58;26.00;;;16.13;;
17727;SDS011;8984;49.268;12.302;2023-01-28T09:09:26;23.37;;;15.83;;
17727;SDS011;8984;49.268;12.302;2023-01-28T09:11:52;26.20;;;16.70;;
17727;SDS011;8984;49.268;12.302;2023-01-28T09:14:20;25.97;;;16.37;;
17727;SDS011;8984;49.268;12.302;2023-01-28T09:16:47;22.73;;;15.20;;
17727;SDS011;8984;49.268;12.302;2023-01-28T09:19:14;24.87;;;16.23;;
17727;SDS011;8984;49.268;12.302;2023-01-28T09:21:41;22.57;;;15.27;;
17727;SDS011;8984;49.268;12.302;2023-01-28T09:24:09;25.43;;;16.63;;
17727;SDS011;8984;49.268;12.302;2023-01-28T09:26:36;25.37;;;15.80;;
17727;SDS011;8984;49.268;12.302;2023-01-28T09:29:02;23.87;;;15.47;;
17727;SDS011;8984;49.268;12.302;2023-01-28T09:31:31;22.87;;;14.93;;
17727;SDS011;8984;49.268;12.302;2023-01-28T09:33:57;24.27;;;16.10;;
17727;SDS011;8984;49.268;12.302;2023-01-28T09:36:24;25.27;;;14.97;;
17727;SDS011;8984;49.268;12.302;2023-01-28T09:38:51;24.57;;;17.47;;
17727;SDS011;8984;49.268;12.302;2023-01-28T09:41:22;25.73;;;17.57;;
17727;SDS011;8984;49.268;12.302;2023-01-28T09:47:00;24.93;;;16.17;;
17727;SDS011;8984;49.268;12.302;2023-01-28T09:49:31;21.63;;;15.63;;
17727;SDS011;8984;49.268;12.302;2023-01-28T09:52:00;23.30;;;16.27;;
17727;SDS011;8984;49.268;12.302;2023-01-28T09:54:28;26.50;;;17.03;;
17727;SDS011;8984;49.268;12.302;2023-01-28T09:57:04;23.83;;;16.47;;
17727;SDS011;8984;49.268;12.302;2023-01-28T09:59:36;24.20;;;16.97;;
17727;SDS011;8984;49.268;12.302;2023-01-28T10:02:11;21.93;;;15.60;;
17727;SDS011;8984;49.268;12.302;2023-01-28T10:04:55;24.80;;;15.67;;
17727;SDS011;8984;49.268;12.302;2023-01-28T10:07:30;23.90;;;14.80;;
17727;SDS011;8984;49.268;12.302;2023-01-28T10:10:02;26.77;;;16.03;;
17727;SDS011;8984;49.268;12.302;2023-01-28T10:12:38;21.63;;;15.63;;
17727;SDS011;8984;49.268;12.302;2023-01-28T10:15:27;23.47;;;16.43;;
17727;SDS011;8984;49.268;12.302;2023-01-28T10:18:29;22.93;;;15.07;;
17727;SDS011;8984;49.268;12.302;2023-01-28T10:21:01;22.53;;;14.47;;
17727;SDS011;8984;49.268;12.302;2023-01-28T10:23:38;26.70;;;16.97;;
17727;SDS011;8984;49.268;12.302;2023-01-28T10:26:14;24.90;;;15.83;;
17727;SDS011;8984;49.268;12.302;2023-01-28T10:28:47;22.40;;;14.90;;
17727;SDS011;8984;49.268;12.302;2023-01-28T10:31:20;20.73;;;14.73;;
17727;SDS011;8984;49.268;12.302;2023-01-28T10:33:48;24.37;;;15.13;;
17727;SDS011;8984;49.268;12.302;2023-01-28T10:36:15;22.60;;;15.50;;
17727;SDS011;8984;49.268;12.302;2023-01-28T10:38:42;21.27;;;14.63;;
17727;SDS011;8984;49.268;12.302;2023-01-28T10:41:11;23.17;;;15.33;;
17727;SDS011;8984;49.268;12.302;2023-01-28T10:43:44;22.40;;;14.20;;
17727;SDS011;8984;49.268;12.302;2023-01-28T10:46:13;19.93;;;13.00;;
17727;SDS011;8984;49.268;12.302;2023-01-28T10:48:43;23.27;;;15.27;;
17727;SDS011;8984;49.268;12.302;2023-01-28T10:51:15;19.60;;;14.57;;
17727;SDS011;8984;49.268;12.302;2023-01-28T10:53:44;22.83;;;15.83;;
17727;SDS011;8984;49.268;12.302;2023-01-28T10:56:13;21.23;;;14.60;;
17727;SDS011;8984;49.268;12.302;2023-01-28T10:58:46;21.03;;;14.13;;
17727;SDS011;8984;49.268;12.302;2023-01-28T11:01:22;22.67;;;15.40;;
17727;SDS011;8984;49.268;12.302;2023-01-28T11:03:53;22.07;;;14.37;;
17727;SDS011;8984;49.268;12.302;2023-01-28T11:06:26;21.70;;;14.63;;
17727;SDS011;8984;49.268;12.302;2023-01-28T11:08:54;20.23;;;14.70;;
17727;SDS011;8984;49.268;12.302;2023-01-28T11:11:23;21.53;;;14.83;;
17727;SDS011;8984;49.268;12.302;2023-01-28T11:13:51;22.40;;;14.47;;
17727;SDS011;8984;49.268;12.302;2023-01-28T11:16:19;24.63;;;16.43;;
17727;SDS011;8984;49.268;12.302;2023-01-28T11:18:47;24.60;;;16.00;;
17727;SDS011;8984;49.268;12.302;2023-01-28T11:21:18;23.50;;;16.10;;
17727;SDS011;8984;49.268;12.302;2023-01-28T11:23:50;24.80;;;15.53;;
17727;SDS011;8984;49.268;12.302;2023-01-28T11:26:20;25.67;;;16.70;;
17727;SDS011;8984;49.268;12.302;2023-01-28T11:28:49;20.63;;;14.73;;
17727;SDS011;8984;49.268;12.302;2023-01-28T11:31:18;22.67;;;15.63;;
17727;SDS011;8984;49.268;12.302;2023-01-28T11:33:48;25.30;;;16.60;;
17727;SDS011;8984;49.268;12.302;2023-01-28T11:36:17;46.87;;;26.63;;
17727;SDS011;8984;49.268;12.302;2023-01-28T11:38:50;24.50;;;16.07;;
17727;SDS011;8984;49.268;12.302;2023-01-28T11:41:22;22.73;;;15.27;;
17727;SDS011;8984;49.268;12.302;2023-01-28T11:43:52;22.90;;;14.67;;
17727;SDS011;8984;49.268;12.302;2023-01-28T11:46:26;21.80;;;14.63;;
17727;SDS011;8984;49.268;12.302;2023-01-28T11:49:11;21.47;;;15.00;;
17727;SDS011;8984;49.268;12.302;2023-01-28T11:51:46;21.10;;;13.97;;
17727;SDS011;8984;49.268;12.302;2023-01-28T11:54:23;21.73;;;14.50;;
17727;SDS011;8984;49.268;12.302;2023-01-28T11:57:16;20.83;;;14.83;;
17727;SDS011;8984;49.268;12.302;2023-01-28T11:59:51;21.80;;;14.57;;
17727;SDS011;8984;49.268;12.302;2023-01-28T12:02:29;22.13;;;15.17;;
17727;SDS011;8984;49.268;12.302;2023-01-28T12:05:26;23.33;;;15.53;;
17727;SDS011;8984;49.268;12.302;2023-01-28T12:08:06;21.03;;;14.20;;
17727;SDS011;8984;49.268;12.302;2023-01-28T12:10:39;19.40;;;14.17;;
17727;SDS011;8984;49.268;12.302;2023-01-28T12:13:18;20.37;;;14.43;;
17727;SDS011;8984;49.268;12.302;2023-01-28T12:19:03;19.07;;;12.93;;
17727;SDS011;8984;49.268;12.302;2023-01-28T12:21:48;18.77;;;12.67;;
17727;SDS011;8984;49.268;12.302;2023-01-28T12:24:29;17.33;;;12.23;;
17727;SDS011;8984;49.268;12.302;2023-01-28T12:27:09;19.73;;;14.03;;
17727;SDS011;8984;49.268;12.302;2023-01-28T12:29:46;21.30;;;13.90;;
17727;SDS011;8984;49.268;12.302;2023-01-28T12:32:26;20.03;;;13.07;;
17727;SDS011;8984;49.268;12.302;2023-01-28T12:35:16;16.47;;;11.33;;
17727;SDS011;8984;49.268;12.302;2023-01-28T12:38:04;17.20;;;12.60;;
17727;SDS011;8984;49.268;12.302;2023-01-28T12:40:43;15.27;;;10.27;;
17727;SDS011;8984;49.268;12.302;2023-01-28T12:43:19;15.83;;;12.10;;
17727;SDS011;8984;49.268;12.302;2023-01-28T12:45:52;16.97;;;11.47;;
17727;SDS011;8984;49.268;12.302;2023-01-28T12:48:24;14.83;;;10.60;;
17727;SDS011;8984;49.268;12.302;2023-01-28T12:50:56;12.00;;;9.43;;
17727;SDS011;8984;49.268;12.302;2023-01-28T12:53:29;11.63;;;8.77;;
17727;SDS011;8984;49.268;12.302;2023-01-28T12:56:02;12.93;;;9.37;;
17727;SDS011;8984;49.268;12.302;2023-01-28T12:58:38;13.53;;;8.80;;
17727;SDS011;8984;49.268;12.302;2023-01-28T13:01:09;10.47;;;7.80;;
17727;SDS011;8984;49.268;12.302;2023-01-28T13:03:42;11.27;;;8.20;;
17727;SDS011;8984;49.268;12.302;2023-01-28T13:06:18;10.20;;;7.47;;
17727;SDS011;8984;49.268;12.302;2023-01-28T13:08:49;10.20;;;8.27;;
17727;SDS011;8984;49.268;12.302;2023-01-28T13:11:22;9.57;;;8.03;;
17727;SDS011;8984;49.268;12.302;2023-01-28T13:13:56;9.77;;;7.37;;
17727;SDS011;8984;49.268;12.302;2023-01-28T13:16:24;9.67;;;7.57;;
17727;SDS011;8984;49.268;12.302;2023-01-28T13:18:51;9.47;;;8.13;;
17727;SDS011;8984;49.268;12.302;2023-01-28T13:21:28;10.07;;;7.97;;
17727;SDS011;8984;49.268;12.302;2023-01-28T13:24:03;9.17;;;7.63;;
17727;SDS011;8984;49.268;12.302;2023-01-28T13:26:36;8.27;;;6.30;;
17727;SDS011;8984;49.268;12.302;2023-01-28T13:29:17;7.60;;;6.80;;
17727;SDS011;8984;49.268;12.302;2023-01-28T13:31:46;9.87;;;7.63;;
17727;SDS011;8984;49.268;12.302;2023-01-28T13:34:25;7.77;;;6.97;;
17727;SDS011;8984;49.268;12.302;2023-01-28T13:36:58;10.40;;;8.07;;
17727;SDS011;8984;49.268;12.302;2023-01-28T13:39:27;8.20;;;7.23;;
17727;SDS011;8984;49.268;12.302;2023-01-28T13:42:06;9.83;;;7.67;;
17727;SDS011;8984;49.268;12.302;2023-01-28T13:44:36;9.50;;;7.20;;
17727;SDS011;8984;49.268;12.302;2023-01-28T13:47:14;11.37;;;8.07;;
17727;SDS011;8984;49.268;12.302;2023-01-28T13:49:47;14.33;;;8.63;;
17727;SDS011;8984;49.268;12.302;2023-01-28T13:52:21;14.97;;;9.13;;
17727;SDS011;8984;49.268;12.302;2023-01-28T13:54:52;9.73;;;8.07;;
17727;SDS011;8984;49.268;12.302;2023-01-28T14:00:39;12.93;;;8.53;;
17727;SDS011;8984;49.268;12.302;2023-01-28T14:06:31;12.20;;;9.13;;
17727;SDS011;8984;49.268;12.302;2023-01-28T14:09:26;12.20;;;8.90;;
17727;SDS011;8984;49.268;12.302;2023-01-28T14:12:10;8.87;;;6.97;;
17727;SDS011;8984;49.268;12.302;2023-01-28T14:15:09;12.87;;;8.23;;
17727;SDS011;8984;49.268;12.302;2023-01-28T14:17:48;10.70;;;7.60;;
17727;SDS011;8984;49.268;12.302;2023-01-28T14:20:18;9.63;;;7.40;;
17727;SDS011;8984;49.268;12.302;2023-01-28T14:22:48;15.63;;;7.57;;
17727;SDS011;8984;49.268;12.302;2023-01-28T14:25:16;8.83;;;6.23;;
17727;SDS011;8984;49.268;12.302;2023-01-28T14:27:50;9.50;;;6.87;;
17727;SDS011;8984;49.268;12.302;2023-01-28T14:42:42;7.70;;;6.87;;
17727;SDS011;8984;49.268;12.302;2023-01-28T14:45:14;8.70;;;6.57;;
17727;SDS011;8984;49.268;12.302;2023-01-28T14:47:56;9.43;;;7.57;;
17727;SDS011;8984;49.268;12.302;2023-01-28T14:50:38;7.70;;;5.97;;
17727;SDS011;8984;49.268;12.302;2023-01-28T14:53:28;8.03;;;6.73;;
17727;SDS011;8984;49.268;12.302;2023-01-28T14:56:11;8.53;;;6.37;;
17727;SDS011;8984;49.268;12.302;2023-01-28T14:58:49;8.43;;;6.97;;
17727;SDS011;8984;49.268;12.302;2023-01-28T15:01:19;15.03;;;6.80;;
17727;SDS011;8984;49.268;12.302;2023-01-28T15:03:47;9.07;;;7.43;;
17727;SDS011;8984;49.268;12.302;2023-01-28T15:06:17;7.37;;;6.20;;
17727;SDS011;8984;49.268;12.302;2023-01-28T15:08:45;10.97;;;6.57;;
17727;SDS011;8984;49.268;12.302;2023-01-28T15:11:13;16.60;;;9.23;;
17727;SDS011;8984;49.268;12.302;2023-01-28T15:13:43;38.93;;;21.20;;
17727;SDS011;8984;49.268;12.302;2023-01-28T15:16:17;8.57;;;6.63;;
17727;SDS011;8984;49.268;12.302;2023-01-28T15:18:46;8.20;;;6.87;;